Time;durP1;ratioP1;P1;durP2;ratioP2;P2;SDS_P1;SDS_P2;PMS_P1;PMS_P2;Temp;Humidity;BMP_temperature;BMP_pressure;BME280_temperature;BME280_humidity;BME280_pressure;Samples;Min_cycle;Max_cycle;Signal;HPM_P1;HPM_P2
2023/05/09 00:00:20;;;;;;;;;2.00;2.00;;;;;19.04;100.00;101514.25;5032156;28;45768;-78
2023/05/09 00:02:46;;;;;;;;;1.33;0.00;;;;;19.04;100.00;101503.56;5035125;28;46622;-80
2023/05/09 00:05:13;;;;;;;;;3.00;3.00;;;;;19.06;100.00;101508.88;5035826;28;45308;-80
2023/05/09 00:07:39;;;;;;;;;3.33;2.67;;;;;19.04;100.00;101503.56;5018146;28;45419;-79
2023/05/09 00:10:05;;;;;;;;;3.67;3.00;;;;;19.03;100.00;101492.88;5033605;28;70942;-78
2023/05/09 00:12:30;;;;;;;;;3.33;3.33;;;;;19.03;100.00;101483.06;5043787;28;47391;-79
2023/05/09 00:14:55;;;;;;;;;2.00;2.00;;;;;19.05;100.00;101483.03;5035080;28;45359;-78
2023/05/09 00:17:24;;;;;;;;;3.00;3.00;;;;;19.06;100.00;101483.00;5033973;28;45258;-78
2023/05/09 00:19:50;;;;;;;;;3.00;3.00;;;;;19.07;100.00;101478.56;5035024;28;45463;-78
2023/05/09 00:22:16;;;;;;;;;4.00;3.00;;;;;19.07;100.00;101473.19;5016415;28;45467;-78
2023/05/09 00:24:42;;;;;;;;;3.00;3.00;;;;;19.07;100.00;101468.72;5035018;28;45389;-79
2023/05/09 00:27:07;;;;;;;;;2.67;2.67;;;;;19.07;100.00;101465.19;5035096;28;45284;-76
2023/05/09 00:29:32;;;;;;;;;2.33;2.33;;;;;19.11;100.00;101464.19;5039103;28;62262;-77
2023/05/09 00:31:58;;;;;;;;;4.33;1.33;;;;;19.11;100.00;101466.88;5039831;28;66562;-78
2023/05/09 00:34:23;;;;;;;;;3.00;3.00;;;;;19.11;100.00;101464.19;5037851;28;54191;-77
2023/05/09 00:36:49;;;;;;;;;2.33;2.33;;;;;19.11;100.00;101466.88;5054485;28;45682;-78
2023/05/09 00:39:14;;;;;;;;;4.00;4.00;;;;;19.09;100.00;101464.22;5038235;28;47517;-77
2023/05/09 00:41:40;;;;;;;;;1.33;1.33;;;;;19.09;100.00;101461.56;5036829;28;67632;-78
2023/05/09 00:44:05;;;;;;;;;2.67;1.67;;;;;19.10;100.00;101457.06;5038241;28;60380;-78
2023/05/09 00:46:31;;;;;;;;;4.33;4.00;;;;;19.06;100.00;101452.66;5037929;28;45483;-77
2023/05/09 00:48:56;;;;;;;;;3.00;3.00;;;;;19.05;100.00;101454.47;5036959;28;70015;-78
2023/05/09 00:51:22;;;;;;;;;3.33;3.33;;;;;19.04;100.00;101446.47;5017462;28;45734;-78
2023/05/09 00:53:47;;;;;;;;;1.33;1.33;;;;;19.02;100.00;101448.28;5020582;28;50376;-78
2023/05/09 00:56:13;;;;;;;;;4.33;3.00;;;;;18.99;100.00;101446.53;5037307;28;59240;-77
2023/05/09 00:58:40;;;;;;;;;3.67;3.67;;;;;18.98;100.00;101438.53;5037867;28;45466;-76
2023/05/09 01:01:05;;;;;;;;;3.67;3.00;;;;;18.94;100.00;101429.66;5037912;28;45641;-77
2023/05/09 01:03:31;;;;;;;;;7.00;4.00;;;;;18.94;100.00;101434.13;5036988;28;45395;-77
2023/05/09 01:06:05;;;;;;;;;3.00;2.00;;;;;18.91;100.00;101429.72;5019520;28;59453;-78
2023/05/09 01:08:43;;;;;;;;;3.00;3.00;;;;;18.87;100.00;101425.28;5019985;28;46891;-78
2023/05/09 01:11:20;;;;;;;;;6.67;4.00;;;;;18.82;100.00;101422.69;5037716;28;45901;-77
2023/05/09 01:13:58;;;;;;;;;2.33;2.33;;;;;18.80;100.00;101408.44;5036182;28;45313;-78
2023/05/09 01:16:53;;;;;;;;;4.00;2.00;;;;;18.80;100.00;101415.56;5037359;28;45541;-77
2023/05/09 01:19:51;;;;;;;;;3.33;3.33;;;;;18.79;100.00;101409.31;5004563;28;46802;-79
2023/05/09 01:22:17;;;;;;;;;3.00;3.00;;;;;18.78;100.00;101410.25;5017288;28;45846;-77
2023/05/09 01:24:55;;;;;;;;;4.00;3.00;;;;;18.80;100.00;101402.19;5035903;28;45737;-77
2023/05/09 01:27:44;;;;;;;;;3.00;3.00;;;;;18.80;100.00;101389.72;5037389;28;45405;-77
2023/05/09 01:30:11;;;;;;;;;3.33;3.00;;;;;18.76;100.00;101371.94;5002943;28;47900;-78
2023/05/09 01:32:38;;;;;;;;;3.33;3.33;;;;;18.81;100.00;101377.22;5037355;28;45486;-77
2023/05/09 01:35:04;;;;;;;;;3.00;3.00;;;;;18.80;100.00;101381.69;5030722;28;45383;-78
2023/05/09 01:37:32;;;;;;;;;3.00;3.00;;;;;18.80;100.00;101376.34;5018589;28;45462;-77
2023/05/09 01:40:00;;;;;;;;;4.00;4.00;;;;;18.78;100.00;101369.22;5018084;28;45559;-77
2023/05/09 01:42:32;;;;;;;;;4.00;4.00;;;;;18.80;100.00;101372.75;5019196;28;45348;-77
2023/05/09 01:44:58;;;;;;;;;4.00;2.00;;;;;18.78;100.00;101370.09;5019973;28;45441;-78
2023/05/09 01:47:24;;;;;;;;;2.33;1.33;;;;;18.80;100.00;101367.41;5018949;28;45605;-77
2023/05/09 01:49:50;;;;;;;;;2.33;2.33;;;;;18.77;100.00;101368.34;5037431;28;47387;-77
2023/05/09 01:52:16;;;;;;;;;4.00;2.33;;;;;18.78;100.00;101370.09;5036560;28;45403;-77
2023/05/09 01:54:43;;;;;;;;;4.00;3.00;;;;;18.76;100.00;101363.91;5019958;28;45439;-77
2023/05/09 01:57:12;;;;;;;;;2.67;2.67;;;;;18.77;100.00;101373.69;5015656;28;45389;-78
2023/05/09 01:59:44;;;;;;;;;4.00;2.33;;;;;18.74;100.00;101368.38;5035608;28;45386;-78
2023/05/09 02:02:09;;;;;;;;;4.00;3.00;;;;;18.76;100.00;101357.69;5015755;28;45365;-77
2023/05/09 02:04:35;;;;;;;;;3.00;3.00;;;;;18.75;100.00;101359.47;5035290;28;63817;-77
2023/05/09 02:07:01;;;;;;;;;4.00;3.00;;;;;18.76;100.00;101357.69;5037357;28;45428;-78
2023/05/09 02:09:27;;;;;;;;;2.67;2.33;;;;;18.75;100.00;101358.56;5014924;28;46372;-78
2023/05/09 02:11:53;;;;;;;;;4.00;3.00;;;;;18.73;100.00;101350.56;5017283;28;66572;-76
2023/05/09 02:14:18;;;;;;;;;3.00;3.00;;;;;18.72;100.00;101347.91;5037363;28;45283;-77
2023/05/09 02:16:43;;;;;;;;;3.33;3.33;;;;;18.73;100.00;101350.56;5017912;28;65456;-77
2023/05/09 02:19:09;;;;;;;;;3.67;3.67;;;;;18.73;100.00;101352.34;5018119;28;65532;-77
2023/05/09 02:21:34;;;;;;;;;3.00;3.00;;;;;18.72;100.00;101359.50;5036510;28;45891;-78
2023/05/09 02:24:00;;;;;;;;;5.00;3.67;;;;;18.73;100.00;101349.69;5036720;28;45519;-78
2023/05/09 02:26:26;;;;;;;;;3.00;2.67;;;;;18.72;100.00;101354.16;5036007;28;54543;-78
2023/05/09 02:28:52;;;;;;;;;5.00;3.67;;;;;18.72;100.00;101358.63;5035528;28;45979;-78
2023/05/09 02:31:19;;;;;;;;;2.00;2.00;;;;;18.70;100.00;101355.97;5036781;28;45458;-78
2023/05/09 02:33:46;;;;;;;;;2.33;1.00;;;;;18.68;100.00;101355.09;5018736;28;45531;-78
2023/05/09 02:36:13;;;;;;;;;2.67;2.67;;;;;18.63;100.00;101353.34;5051818;28;45617;-76
2023/05/09 02:38:40;;;;;;;;;4.00;4.00;;;;;18.62;100.00;101349.78;5018515;28;46203;-78
2023/05/09 02:41:05;;;;;;;;;4.00;4.00;;;;;18.60;100.00;101346.28;5034398;28;45621;-77
2023/05/09 02:43:31;;;;;;;;;5.67;2.67;;;;;18.58;100.00;101350.72;5036866;28;45344;-78
2023/05/09 02:45:56;;;;;;;;;3.00;3.00;;;;;18.55;100.00;101351.69;5036799;28;45357;-76
2023/05/09 02:48:22;;;;;;;;;3.00;3.00;;;;;18.53;100.00;101341.88;5016963;28;47442;-77
2023/05/09 02:50:47;;;;;;;;;2.67;2.67;;;;;18.53;100.00;101347.25;5036265;28;45399;-78
2023/05/09 02:53:12;;;;;;;;;5.33;3.33;;;;;18.51;100.00;101341.03;5034256;28;62026;-77
2023/05/09 02:55:38;;;;;;;;;3.00;3.00;;;;;18.49;100.00;101338.41;5035504;28;60481;-78
2023/05/09 02:58:03;;;;;;;;;3.33;3.33;;;;;18.47;100.00;101334.84;5035252;28;65769;-79
2023/05/09 03:00:28;;;;;;;;;3.00;2.00;;;;;18.45;100.00;101338.44;5035118;28;62067;-77
2023/05/09 03:02:54;;;;;;;;;3.67;3.67;;;;;18.44;100.00;101336.69;5035615;28;66417;-78
2023/05/09 03:05:20;;;;;;;;;4.33;3.00;;;;;18.42;100.00;101343.81;5035692;28;45512;-77
2023/05/09 03:07:46;;;;;;;;;2.33;2.33;;;;;18.42;100.00;101338.47;5011759;28;48501;-77
2023/05/09 03:10:11;;;;;;;;;4.00;4.00;;;;;18.41;100.00;101344.75;5032544;28;45320;-77
2023/05/09 03:12:37;;;;;;;;;2.33;2.33;;;;;18.39;100.00;101342.09;5035186;28;54506;-78
2023/05/09 03:15:07;;;;;;;;;3.00;3.00;;;;;18.37;100.00;101340.31;5015248;28;45666;-76
2023/05/09 03:17:33;;;;;;;;;2.67;2.67;;;;;18.37;100.00;101346.56;5029711;28;47263;-77
2023/05/09 03:19:58;;;;;;;;;5.67;4.00;;;;;18.37;100.00;101337.66;5035861;28;45278;-76
2023/05/09 03:22:23;;;;;;;;;5.00;3.67;;;;;18.35;100.00;101335.00;5035409;28;63619;-76
2023/05/09 03:24:49;;;;;;;;;3.00;3.00;;;;;18.30;100.00;101335.06;5034262;28;45622;-79
2023/05/09 03:27:14;;;;;;;;;4.67;3.00;;;;;18.27;100.00;101337.78;5035917;28;46288;-77
2023/05/09 03:29:39;;;;;;;;;2.00;2.00;;;;;18.25;100.00;101339.59;5034663;28;67983;-78
2023/05/09 03:32:05;;;;;;;;;3.00;3.00;;;;;18.22;100.00;101331.63;5035683;28;64741;-77
2023/05/09 03:34:30;;;;;;;;;3.00;3.00;;;;;18.17;100.00;101325.44;5035457;28;46619;-77
2023/05/09 03:36:57;;;;;;;;;2.00;2.00;;;;;18.12;100.00;101327.28;5035191;28;46376;-78
2023/05/09 03:39:22;;;;;;;;;3.00;3.00;;;;;18.08;100.00;101325.56;5034211;28;68747;-78
2023/05/09 03:41:48;;;;;;;;;2.00;2.00;;;;;18.05;100.00;101320.22;5035082;28;63804;-78
2023/05/09 03:44:13;;;;;;;;;2.67;2.67;;;;;18.03;100.00;101309.56;5027739;28;45198;-77
2023/05/09 03:46:39;;;;;;;;;3.00;3.00;;;;;18.04;100.00;101315.78;5035165;28;46348;-77
2023/05/09 03:49:04;;;;;;;;;6.00;3.00;;;;;18.03;100.00;101314.91;5035338;28;45157;-77
2023/05/09 03:51:29;;;;;;;;;2.00;2.00;;;;;18.01;100.00;101319.41;5034910;28;45456;-77
2023/05/09 03:53:55;;;;;;;;;4.00;2.33;;;;;17.97;100.00;101315.00;5035460;28;45530;-77
2023/05/09 03:56:21;;;;;;;;;2.00;2.00;;;;;17.93;100.00;101307.03;5034354;28;46512;-77
2023/05/09 03:58:46;;;;;;;;;1.67;1.00;;;;;17.87;100.00;101307.97;5017222;28;45571;-76
2023/05/09 04:01:12;;;;;;;;;3.00;2.00;;;;;17.82;100.00;101298.25;5034742;28;45291;-77
2023/05/09 04:03:37;;;;;;;;;3.33;2.00;;;;;17.75;100.00;101297.44;5036325;28;45491;-78
2023/05/09 04:06:04;;;;;;;;;2.00;2.00;;;;;17.73;100.00;101293.88;5054020;28;45539;-78
2023/05/09 04:08:29;;;;;;;;;4.00;2.00;;;;;17.72;100.00;101305.44;5036609;28;45406;-78
2023/05/09 04:10:54;;;;;;;;;4.00;2.00;;;;;17.67;100.00;101305.47;5035734;28;64036;-77
2023/05/09 04:13:20;;;;;;;;;2.00;2.00;;;;;17.64;100.00;101297.53;5035678;28;45461;-77
2023/05/09 04:15:45;;;;;;;;;1.00;1.00;;;;;17.63;100.00;101295.75;5036259;28;45451;-78
2023/05/09 04:18:10;;;;;;;;;4.67;2.00;;;;;17.63;100.00;101290.41;5038682;28;53708;-77
2023/05/09 04:20:36;;;;;;;;;3.00;2.00;;;;;17.62;100.00;101287.75;5037897;28;60840;-77
2023/05/09 04:23:01;;;;;;;;;2.00;2.00;;;;;17.60;100.00;101287.78;5038006;28;61475;-77
2023/05/09 04:25:28;;;;;;;;;2.00;2.00;;;;;17.60;100.00;101282.44;5038118;28;46475;-77
2023/05/09 04:27:53;;;;;;;;;2.33;1.00;;;;;17.58;100.00;101276.22;5035308;28;45335;-77
2023/05/09 04:30:19;;;;;;;;;1.00;1.00;;;;;17.58;100.00;101278.91;5037347;28;45252;-77
2023/05/09 04:32:45;;;;;;;;;1.00;1.00;;;;;17.54;100.00;101277.16;5037466;28;45602;-78
2023/05/09 04:35:11;;;;;;;;;1.00;1.00;;;;;17.52;100.00;101270.94;5037005;28;45516;-77
2023/05/09 04:37:37;;;;;;;;;1.00;1.00;;;;;17.49;100.00;101268.31;5037416;28;46234;-77
2023/05/09 04:40:04;;;;;;;;;3.00;1.33;;;;;17.45;100.00;101256.75;5020515;28;45871;-77
2023/05/09 04:42:32;;;;;;;;;1.00;1.00;;;;;17.43;100.00;101261.25;5038121;28;45384;-78
2023/05/09 04:44:57;;;;;;;;;1.67;1.00;;;;;17.40;100.00;101258.59;5032885;28;46450;-75
2023/05/09 04:47:22;;;;;;;;;1.00;1.00;;;;;17.40;100.00;101261.28;5029882;28;52959;-75
2023/05/09 04:49:48;;;;;;;;;1.00;1.00;;;;;17.38;100.00;101257.75;5033770;28;59827;-75
2023/05/09 04:52:13;;;;;;;;;1.00;1.00;;;;;17.34;100.00;101253.31;5035437;28;61219;-77
2023/05/09 04:54:38;;;;;;;;;2.00;2.00;;;;;17.36;100.00;101256.84;5035720;28;69910;-73
2023/05/09 04:57:05;;;;;;;;;1.00;1.00;;;;;17.35;100.00;101254.22;5031452;28;53528;-73
2023/05/09 04:59:31;;;;;;;;;1.00;1.00;;;;;17.31;100.00;101253.38;5030126;28;45304;-73
2023/05/09 05:01:56;;;;;;;;;2.00;2.00;;;;;17.31;100.00;101244.44;5030498;28;45245;-74
2023/05/09 05:04:22;;;;;;;;;2.00;2.00;;;;;17.28;100.00;101243.59;5027589;28;66783;-73
2023/05/09 05:06:47;;;;;;;;;1.00;1.00;;;;;17.28;100.00;101251.59;5030853;28;45530;-73
2023/05/09 05:09:13;;;;;;;;;1.00;1.00;;;;;17.27;100.00;101244.50;5029677;28;64842;-78
2023/05/09 05:11:38;;;;;;;;;1.00;1.00;;;;;17.25;100.00;101243.63;5037697;28;56961;-74
2023/05/09 05:14:03;;;;;;;;;1.00;1.00;;;;;17.24;100.00;101241.84;5030044;28;62479;-74
2023/05/09 05:16:29;;;;;;;;;1.00;1.00;;;;;17.24;100.00;101238.31;5034978;28;66589;-74
2023/05/09 05:18:54;;;;;;;;;2.00;1.00;;;;;17.22;100.00;101229.44;5037685;28;45301;-75
2023/05/09 05:21:19;;;;;;;;;1.00;1.00;;;;;17.21;100.00;101233.91;5033204;28;46158;-75
2023/05/09 05:23:45;;;;;;;;;1.00;1.00;;;;;17.20;100.00;101225.88;5029681;28;53366;-74
2023/05/09 05:26:10;;;;;;;;;1.00;1.00;;;;;17.18;100.00;101225.91;5017153;28;45430;-75
2023/05/09 05:28:35;;;;;;;;;1.33;1.33;;;;;17.17;100.00;101218.81;5033586;28;56009;-75
2023/05/09 05:31:01;;;;;;;;;1.00;1.00;;;;;17.17;100.00;101223.25;5029352;28;60577;-75
2023/05/09 05:33:26;;;;;;;;;1.00;1.00;;;;;17.16;100.00;101225.06;5031640;28;66385;-75
2023/05/09 05:35:51;;;;;;;;;3.00;1.00;;;;;17.16;100.00;101214.38;5035040;28;65960;-75
2023/05/09 05:38:16;;;;;;;;;1.00;1.00;;;;;17.14;100.00;101208.16;5041522;28;54869;-76
2023/05/09 05:40:42;;;;;;;;;1.00;1.00;;;;;17.15;100.00;101215.28;5031166;28;57798;-75
2023/05/09 05:43:07;;;;;;;;;1.67;1.67;;;;;17.14;100.00;101210.81;5032283;28;70384;-75
2023/05/09 05:45:32;;;;;;;;;2.00;2.00;;;;;17.14;100.00;101212.59;5031721;28;45468;-75
2023/05/09 05:47:58;;;;;;;;;2.00;2.00;;;;;17.12;100.00;101212.63;5031210;28;60994;-78
2023/05/09 05:50:23;;;;;;;;;1.00;1.00;;;;;17.08;100.00;101202.88;5035683;28;45814;-76
2023/05/09 05:52:48;;;;;;;;;2.00;2.00;;;;;17.09;100.00;101204.63;5033462;28;45567;-76
2023/05/09 05:55:14;;;;;;;;;2.00;2.00;;;;;17.09;100.00;101195.75;5012225;28;66898;-75
2023/05/09 05:57:39;;;;;;;;;4.33;3.33;;;;;17.10;100.00;101189.50;5016381;28;45279;-78
2023/05/09 06:00:09;;;;;;;;;3.00;2.00;;;;;17.11;100.00;101196.66;5027712;28;45297;-76
2023/05/09 06:02:34;;;;;;;;;3.00;3.00;;;;;17.11;100.00;101196.66;5027543;28;45713;-76
2023/05/09 06:05:00;;;;;;;;;2.00;2.00;;;;;17.10;100.00;101192.19;5023886;28;45222;-78
2023/05/09 06:07:25;;;;;;;;;2.67;2.67;;;;;17.08;100.00;101181.53;5029502;28;51856;-76
2023/05/09 06:09:50;;;;;;;;;3.67;2.00;;;;;17.09;100.00;101183.28;5019890;28;45545;-76
2023/05/09 06:12:16;;;;;;;;;2.00;2.00;;;;;17.09;100.00;101183.28;5035846;28;68903;-78
2023/05/09 06:14:42;;;;;;;;;2.00;2.00;;;;;17.09;100.00;101179.75;5033736;28;45356;-76
2023/05/09 06:17:07;;;;;;;;;2.00;2.00;;;;;17.09;100.00;101171.75;5034031;28;45612;-75
2023/05/09 06:19:33;;;;;;;;;3.00;3.00;;;;;17.08;100.00;101170.88;5018015;28;45717;-77
2023/05/09 06:21:58;;;;;;;;;1.67;1.67;;;;;17.10;100.00;101179.75;5029127;28;60093;-74
2023/05/09 06:24:23;;;;;;;;;2.00;2.00;;;;;17.08;100.00;101180.66;5029313;28;64612;-75
2023/05/09 06:26:49;;;;;;;;;2.33;2.33;;;;;17.08;100.00;101172.66;5034598;28;61500;-76
2023/05/09 06:29:15;;;;;;;;;3.33;2.00;;;;;17.10;100.00;101169.06;5035283;28;45391;-76
2023/05/09 06:31:40;;;;;;;;;2.00;2.00;;;;;17.09;100.00;101169.94;5033781;28;45477;-75
2023/05/09 06:34:06;;;;;;;;;2.00;2.00;;;;;17.11;100.00;101159.28;5030373;28;46495;-76
2023/05/09 06:36:32;;;;;;;;;2.00;2.00;;;;;17.11;100.00;101159.28;5034399;28;45577;-78
2023/05/09 06:38:57;;;;;;;;;2.33;2.00;;;;;17.11;100.00;101157.50;5018861;28;45327;-75
2023/05/09 06:41:23;;;;;;;;;1.00;1.00;;;;;17.16;100.00;101152.13;5035781;28;46402;-75
2023/05/09 06:43:48;;;;;;;;;1.00;1.00;;;;;17.14;100.00;101149.44;5035996;28;45583;-76
2023/05/09 06:46:13;;;;;;;;;2.00;2.00;;;;;17.14;100.00;101152.13;5027442;28;55728;-75
2023/05/09 06:48:39;;;;;;;;;1.33;1.00;;;;;17.15;100.00;101148.56;5028256;28;56494;-75
2023/05/09 06:51:04;;;;;;;;;3.00;2.00;;;;;17.13;100.00;101145.00;5032737;28;46734;-75
2023/05/09 06:53:29;;;;;;;;;2.00;2.00;;;;;17.14;100.00;101152.13;5032280;28;45499;-75
2023/05/09 06:55:55;;;;;;;;;2.67;2.00;;;;;17.15;100.00;101139.66;5033636;28;60286;-75
2023/05/09 06:58:20;;;;;;;;;3.00;1.00;;;;;17.14;100.00;101140.56;5034625;28;58819;-75
2023/05/09 07:00:46;;;;;;;;;2.67;1.67;;;;;17.10;100.00;101134.41;5146168;22;46551;-75
2023/05/09 07:03:12;;;;;;;;;1.67;1.00;;;;;17.06;100.00;101127.31;5055390;28;45457;-75
2023/05/09 07:05:37;;;;;;;;;1.00;1.00;;;;;17.03;100.00;101124.66;5052291;28;45379;-74
2023/05/09 07:08:03;;;;;;;;;4.00;2.00;;;;;17.02;100.00;101122.91;5053683;28;61484;-74
2023/05/09 07:10:28;;;;;;;;;1.00;1.00;;;;;17.01;100.00;101121.16;5034198;28;47605;-74
2023/05/09 07:12:53;;;;;;;;;2.00;2.00;;;;;16.97;100.00;101109.63;5053637;28;57917;-74
2023/05/09 07:15:19;;;;;;;;;1.00;1.00;;;;;16.98;100.00;101111.38;5050451;28;49944;-74
2023/05/09 07:17:44;;;;;;;;;1.00;1.00;;;;;16.98;100.00;101111.38;5053685;28;45280;-75
2023/05/09 07:20:10;;;;;;;;;3.33;2.00;;;;;16.99;100.00;101110.50;5054016;28;49866;-74
2023/05/09 07:22:35;;;;;;;;;3.00;1.00;;;;;17.00;100.00;101092.72;5052201;28;45387;-74
2023/05/09 07:25:01;;;;;;;;;2.00;1.33;;;;;17.00;100.00;101103.38;5056149;28;45462;-74
2023/05/09 07:27:26;;;;;;;;;1.67;1.67;;;;;17.01;100.00;101091.81;5055534;28;45438;-75
2023/05/09 07:29:51;;;;;;;;;0.33;0.33;;;;;16.99;100.00;101091.81;5049021;28;47524;-75
2023/05/09 07:32:18;;;;;;;;;1.00;1.00;;;;;16.99;100.00;101099.84;5056211;28;45455;-75
2023/05/09 07:34:43;;;;;;;;;1.67;1.67;;;;;16.98;100.00;101090.03;5050918;28;45492;-75
2023/05/09 07:37:08;;;;;;;;;1.00;1.00;;;;;17.00;100.00;101092.72;5047737;28;45485;-74
2023/05/09 07:39:34;;;;;;;;;2.00;2.00;;;;;16.97;100.00;101082.94;5050514;28;59901;-74
2023/05/09 07:41:59;;;;;;;;;2.00;2.00;;;;;16.96;100.00;101074.97;5053859;28;45308;-73
2023/05/09 07:44:24;;;;;;;;;2.00;2.00;;;;;16.98;100.00;101084.69;5049795;28;45454;-74
2023/05/09 07:46:50;;;;;;;;;1.00;1.00;;;;;17.00;100.00;101071.38;5053510;28;50120;-74
2023/05/09 07:49:15;;;;;;;;;1.67;1.67;;;;;17.00;100.00;101076.69;5046605;28;65940;-76
2023/05/09 07:51:40;;;;;;;;;2.00;2.00;;;;;17.01;100.00;101070.47;5048059;28;61013;-76
2023/05/09 07:54:06;;;;;;;;;4.33;2.00;;;;;17.04;100.00;101075.75;5051216;28;62776;-76
2023/05/09 07:56:31;;;;;;;;;2.67;2.00;;;;;17.08;100.00;101071.25;5047374;28;45639;-76
2023/05/09 07:58:56;;;;;;;;;2.67;1.00;;;;;17.08;100.00;101064.13;5052347;28;63988;-76
2023/05/09 08:01:22;;;;;;;;;1.00;1.00;;;;;17.11;100.00;101066.78;5053321;28;60328;-75
2023/05/09 08:03:47;;;;;;;;;1.67;1.00;;;;;17.15;100.00;101068.53;5054000;28;56329;-75
2023/05/09 08:06:12;;;;;;;;;1.00;1.00;;;;;17.15;100.00;101059.59;5055052;28;45394;-75
2023/05/09 08:08:38;;;;;;;;;2.00;2.00;;;;;17.15;100.00;101060.50;5051178;28;69873;-75
2023/05/09 08:11:04;;;;;;;;;1.67;1.67;;;;;17.16;100.00;101059.59;5051960;28;58801;-75
2023/05/09 08:13:29;;;;;;;;;1.33;0.00;;;;;17.14;100.00;101055.16;5049967;28;45276;-74
2023/05/09 08:15:54;;;;;;;;;1.00;1.00;;;;;17.13;100.00;101051.63;5049722;28;45391;-75
2023/05/09 08:18:20;;;;;;;;;2.33;1.00;;;;;17.11;100.00;101053.44;5048754;28;46437;-75
2023/05/09 08:20:45;;;;;;;;;1.00;1.00;;;;;17.10;100.00;101056.09;5052681;28;45248;-75
2023/05/09 08:23:10;;;;;;;;;1.00;1.00;;;;;17.07;100.00;101046.38;5055072;28;45782;-75
2023/05/09 08:25:36;;;;;;;;;1.00;1.00;;;;;17.08;100.00;101045.47;5048143;28;45425;-74
2023/05/09 08:28:01;;;;;;;;;1.00;1.00;;;;;17.10;100.00;101043.69;5040918;28;70477;-75
2023/05/09 08:30:28;;;;;;;;;2.00;1.00;;;;;17.12;100.00;101033.84;5046172;28;55035;-74
2023/05/09 08:32:54;;;;;;;;;4.00;2.00;;;;;17.10;100.00;101033.00;5048431;28;45299;-75
2023/05/09 08:35:19;;;;;;;;;3.67;3.00;;;;;17.11;100.00;101032.09;5046913;28;45481;-75
2023/05/09 08:37:46;;;;;;;;;1.33;1.33;;;;;17.15;100.00;101030.25;5052678;28;70614;-75
2023/05/09 08:40:12;;;;;;;;;3.67;2.00;;;;;17.17;100.00;101026.69;5045741;28;45400;-74
2023/05/09 08:42:38;;;;;;;;;3.00;3.00;;;;;17.19;100.00;101024.84;5053765;28;45318;-75
2023/05/09 08:45:13;;;;;;;;;4.33;2.00;;;;;17.20;100.00;101021.28;5050554;28;45388;-75
2023/05/09 08:47:40;;;;;;;;;5.00;2.00;;;;;17.23;100.00;101009.69;5053126;28;47637;-75
2023/05/09 08:50:06;;;;;;;;;1.33;1.33;;;;;17.22;100.00;101011.50;5052220;28;45434;-75
2023/05/09 08:52:32;;;;;;;;;6.00;2.00;;;;;17.21;100.00;101015.06;5058810;28;45511;-75
2023/05/09 08:54:59;;;;;;;;;1.67;1.67;;;;;17.19;100.00;101019.53;5057905;28;45354;-75
2023/05/09 08:57:25;;;;;;;;;2.67;2.00;;;;;17.17;100.00;101013.34;5058061;28;47405;-75
2023/05/09 08:59:51;;;;;;;;;2.00;2.00;;;;;17.16;100.00;101013.38;5057914;28;45346;-76
2023/05/09 09:02:17;;;;;;;;;1.00;1.00;;;;;17.12;100.00;101004.50;5058015;28;45205;-75
2023/05/09 09:04:43;;;;;;;;;1.00;1.00;;;;;17.13;100.00;101006.25;5053476;28;47146;-75
2023/05/09 09:07:09;;;;;;;;;1.00;1.00;;;;;17.13;100.00;101008.94;5046711;28;47435;-76
2023/05/09 09:09:35;;;;;;;;;1.00;1.00;;;;;17.12;100.00;100999.16;5050122;28;64020;-75
2023/05/09 09:12:03;;;;;;;;;1.33;1.33;;;;;17.11;100.00;100986.75;5049593;28;61589;-75
2023/05/09 09:14:30;;;;;;;;;1.67;1.67;;;;;17.10;100.00;100990.31;5053295;28;45430;-75
2023/05/09 09:16:56;;;;;;;;;3.00;0.33;;;;;17.13;100.00;100995.59;5049871;28;68590;-76
2023/05/09 09:19:25;;;;;;;;;1.00;1.00;;;;;17.13;100.00;100998.25;5048917;28;45614;-75
2023/05/09 09:21:53;;;;;;;;;1.00;1.00;;;;;17.11;100.00;101002.75;5034299;28;45525;-75
2023/05/09 09:24:21;;;;;;;;;1.00;1.00;;;;;17.12;100.00;100999.16;5025764;28;45583;-74
2023/05/09 09:26:48;;;;;;;;;0.67;0.67;;;;;17.07;100.00;100998.34;5046818;28;47429;-75
2023/05/09 09:29:15;;;;;;;;;2.67;1.00;;;;;17.02;100.00;100986.84;5049284;28;45324;-73
2023/05/09 09:31:43;;;;;;;;;3.00;2.00;;;;;17.01;100.00;100990.44;5047211;28;45405;-73
2023/05/09 09:34:09;;;;;;;;;2.00;1.00;;;;;17.00;100.00;100997.56;5050252;28;45591;-72
2023/05/09 09:36:37;;;;;;;;;1.33;0.00;;;;;16.98;100.00;100990.44;5050227;28;47205;-72
2023/05/09 09:39:04;;;;;;;;;4.00;1.00;;;;;16.98;100.00;101001.13;5046353;28;45155;-74
2023/05/09 09:41:33;;;;;;;;;1.00;1.00;;;;;16.99;100.00;100994.88;5051236;28;45228;-74
2023/05/09 09:44:15;;;;;;;;;4.00;2.00;;;;;16.98;100.00;100999.34;5042704;28;45552;-73
2023/05/09 09:46:51;;;;;;;;;1.00;1.00;;;;;16.96;100.00;100993.16;5045996;28;47588;-72
2023/05/09 09:49:21;;;;;;;;;0.67;0.67;;;;;16.98;100.00;100996.66;5049051;28;45709;-72
2023/05/09 09:51:50;;;;;;;;;3.00;1.00;;;;;17.02;100.00;100994.84;5049527;28;45465;-73
2023/05/09 09:54:16;;;;;;;;;4.00;1.00;;;;;17.03;100.00;100984.16;5048243;28;45184;-72
2023/05/09 09:56:47;;;;;;;;;0.33;0.33;;;;;17.05;100.00;100984.16;5045535;28;67321;-78
2023/05/09 09:59:17;;;;;;;;;2.00;1.00;;;;;17.05;100.00;100985.94;5049965;28;45813;-76
2023/05/09 10:02:00;;;;;;;;;2.67;2.67;;;;;17.03;100.00;100980.59;5049743;28;45408;-76
2023/05/09 10:04:34;;;;;;;;;1.00;1.00;;;;;17.06;100.00;100985.03;5043063;28;47487;-76
2023/05/09 10:07:04;;;;;;;;;1.67;1.67;;;;;17.07;100.00;100976.13;5051551;28;46428;-77
2023/05/09 10:09:30;;;;;;;;;1.00;1.00;;;;;17.08;100.00;100969.88;5050459;28;45520;-77
2023/05/09 10:12:01;;;;;;;;;0.00;0.00;;;;;17.09;100.00;100968.97;5048963;28;45517;-76
2023/05/09 10:14:26;;;;;;;;;1.00;1.00;;;;;17.08;100.00;100961.88;5050537;28;45142;-76
2023/05/09 10:16:56;;;;;;;;;0.00;0.00;;;;;17.11;100.00;100967.19;5033586;28;46931;-77
2023/05/09 10:19:22;;;;;;;;;2.00;2.00;;;;;17.11;100.00;100962.72;5053546;28;45427;-78
2023/05/09 10:21:54;;;;;;;;;1.00;1.00;;;;;17.15;100.00;100961.78;5049280;28;45496;-75
2023/05/09 10:24:50;;;;;;;;;1.00;1.00;;;;;17.19;100.00;100958.16;5048687;28;45509;-75
2023/05/09 10:27:18;;;;;;;;;2.00;1.00;;;;;17.20;100.00;100951.03;5046568;28;46649;-76
2023/05/09 10:29:45;;;;;;;;;1.00;1.00;;;;;17.20;100.00;100951.03;5035623;28;45515;-77
2023/05/09 10:32:16;;;;;;;;;0.33;0.00;;;;;17.17;100.00;100948.41;5051720;28;45277;-77
2023/05/09 10:34:47;;;;;;;;;2.00;1.00;;;;;17.22;100.00;100946.56;5054081;28;45454;-77
2023/05/09 10:37:12;;;;;;;;;0.00;0.00;;;;;17.24;100.00;100950.06;5051346;28;47405;-76
2023/05/09 10:39:38;;;;;;;;;1.00;1.00;;;;;17.28;100.00;100952.69;5051070;28;45522;-76
2023/05/09 10:42:04;;;;;;;;;1.00;1.00;;;;;17.35;100.00;100941.91;5036566;28;45478;-76
2023/05/09 10:44:30;;;;;;;;;1.00;1.00;;;;;17.43;100.00;100934.69;5038021;28;45427;-75
2023/05/09 10:46:55;;;;;;;;;2.67;1.00;;;;;17.47;100.00;100937.28;5036697;28;46598;-76
2023/05/09 10:49:21;;;;;;;;;1.00;1.00;;;;;17.51;100.00;100938.97;5050008;28;55171;-76
2023/05/09 10:51:49;;;;;;;;;2.33;1.00;;;;;17.52;100.00;100931.84;5042226;28;45530;-77
2023/05/09 10:54:25;;;;;;;;;2.00;2.00;;;;;17.57;100.00;100930.00;5045960;28;45605;-75
2023/05/09 10:56:51;;;;;;;;;2.00;2.00;;;;;17.60;100.00;100927.28;5046609;28;46459;-76
2023/05/09 10:59:38;;;;;;;;;1.00;1.00;;;;;17.66;100.00;100929.84;5048381;28;64446;-76
2023/05/09 11:02:04;;;;;;;;;1.00;1.00;;;;;17.70;100.00;100930.69;5049581;28;45553;-78
2023/05/09 11:04:33;;;;;;;;;3.00;1.00;;;;;17.72;100.00;100927.09;5050375;28;45277;-76
2023/05/09 11:06:59;;;;;;;;;1.33;0.33;;;;;17.68;100.00;100914.66;5052975;28;46303;-77
2023/05/09 11:09:29;;;;;;;;;1.67;1.67;;;;;17.69;100.00;100921.78;5054374;28;45588;-76
2023/05/09 11:12:12;;;;;;;;;1.00;0.00;;;;;17.69;100.00;100923.59;5053180;28;47269;-76
2023/05/09 11:14:43;;;;;;;;;2.00;2.00;;;;;17.67;100.00;100910.25;5049037;28;45397;-76